Time,TemperatureF,DewpointF,PressureIn,WindDirection,WindDirectionDegrees,WindSpeedMPH,WindSpeedGustMPH,Humidity,HourlyPrecipIn,Conditions,Clouds,dailyrainin,SolarRadiationWatts/m^2,SoftwareType,DateUTC
2013-03-14 00:02:00,51.3,48.7,30.12,WSW,252,0.0,0.0,91,0.00,,,0.00,0.0,meteohub,2013-03-14 07:02:00,
2013-03-14 00:07:00,51.1,48.6,30.12,WSW,252,0.0,0.0,91,0.00,,,0.00,0.0,meteohub,2013-03-14 07:07:00,
2013-03-14 00:12:00,51.1,48.6,30.12,WSW,252,0.0,0.0,91,0.00,,,0.00,0.0,meteohub,2013-03-14 07:12:00,
2013-03-14 00:18:00,51.1,48.9,30.12,WSW,252,0.0,0.0,92,0.00,,,0.00,0.0,meteohub,2013-03-14 07:18:00,
2013-03-14 00:24:00,51.1,48.9,30.12,WSW,252,0.0,0.0,92,0.00,,,0.00,0.0,meteohub,2013-03-14 07:24:00,
2013-03-14 00:30:00,50.9,48.7,30.12,WSW,252,0.0,0.0,92,0.00,,,0.00,0.0,meteohub,2013-03-14 07:30:00,
2013-03-14 00:37:00,50.7,48.6,30.12,WSW,252,0.0,0.0,92,0.00,,,0.00,0.0,meteohub,2013-03-14 07:37:00,
2013-03-14 00:42:00,50.7,48.6,30.12,WSW,252,0.0,0.0,92,0.00,,,0.00,0.0,meteohub,2013-03-14 07:42:00,
2013-03-14 00:47:00,50.5,48.4,30.12,WSW,252,0.0,0.0,92,0.00,,,0.00,0.0,meteohub,2013-03-14 07:47:00,
2013-03-14 00:53:00,50.5,48.4,30.12,WSW,252,0.0,0.0,92,0.00,,,0.00,0.0,meteohub,2013-03-14 07:53:00,
2013-03-14 00:59:00,50.5,48.4,30.12,WSW,252,0.0,0.0,92,0.00,,,0.00,0.0,meteohub,2013-03-14 07:59:00,
2013-03-14 01:05:00,50.4,48.2,30.12,WSW,252,0.0,0.0,92,0.00,,,0.00,0.0,meteohub,2013-03-14 08:05:00,
2013-03-14 01:12:00,50.2,48.0,30.12,WSW,252,0.0,0.0,92,0.00,,,0.00,0.0,meteohub,2013-03-14 08:12:00,
2013-03-14 01:17:00,50.2,48.0,30.12,WSW,252,0.0,0.0,92,0.00,,,0.00,0.0,meteohub,2013-03-14 08:17:00,
2013-03-14 01:22:00,50.2,48.0,30.12,WSW,252,0.0,0.0,92,0.00,,,0.00,0.0,meteohub,2013-03-14 08:22:00,
2013-03-14 01:27:00,50.0,47.8,30.12,WSW,252,0.0,0.0,92,0.00,,,0.00,0.0,meteohub,2013-03-14 08:27:00,
2013-03-14 01:32:00,49.8,47.7,30.12,WSW,252,0.0,0.0,92,0.00,,,0.00,0.0,meteohub,2013-03-14 08:32:00,
2013-03-14 01:37:00,49.6,47.7,30.12,WSW,252,0.0,0.0,93,0.00,,,0.00,0.0,meteohub,2013-03-14 08:37:00,
2013-03-14 01:42:00,49.6,47.7,30.12,WSW,252,0.0,0.0,93,0.00,,,0.00,0.0,meteohub,2013-03-14 08:42:00,
2013-03-14 01:47:00,49.5,47.5,30.12,WSW,252,0.0,0.0,93,0.00,,,0.00,0.0,meteohub,2013-03-14 08:47:00,
2013-03-14 01:53:00,49.5,47.5,30.12,WSW,252,0.0,0.0,93,0.00,,,0.00,0.0,meteohub,2013-03-14 08:53:00,
2013-03-14 01:59:00,49.3,47.3,30.12,WSW,252,0.0,0.0,93,0.00,,,0.00,0.0,meteohub,2013-03-14 08:59:00,
2013-03-14 02:05:00,48.9,46.9,30.12,WSW,252,0.0,0.0,93,0.00,,,0.00,0.0,meteohub,2013-03-14 09:05:00,
2013-03-14 02:12:00,48.9,46.9,30.12,WSW,252,0.0,0.0,93,0.00,,,0.00,0.0,meteohub,2013-03-14 09:12:00,
2013-03-14 02:18:00,48.7,46.8,30.13,WSW,252,0.0,0.0,93,0.00,,,0.00,0.0,meteohub,2013-03-14 09:18:00,
2013-03-14 02:24:00,48.6,46.9,30.13,WSW,252,0.0,0.0,94,0.00,,,0.00,0.0,meteohub,2013-03-14 09:24:00,
2013-03-14 02:31:00,48.6,46.9,30.12,WSW,252,0.0,0.0,94,0.00,,,0.00,0.0,meteohub,2013-03-14 09:31:00,
2013-03-14 02:37:00,48.6,46.9,30.13,WSW,252,0.0,0.0,94,0.00,,,0.00,0.0,meteohub,2013-03-14 09:37:00,
2013-03-14 02:44:00,48.4,46.8,30.12,WSW,252,0.0,0.0,94,0.00,,,0.00,0.0,meteohub,2013-03-14 09:44:00,
2013-03-14 02:50:00,48.2,46.6,30.13,WSW,252,0.0,0.0,94,0.00,,,0.00,0.0,meteohub,2013-03-14 09:50:00,
2013-03-14 02:56:00,48.2,46.6,30.13,WSW,252,0.0,0.0,94,0.00,,,0.00,0.0,meteohub,2013-03-14 09:56:00,
2013-03-14 03:02:00,48.2,46.6,30.12,WSW,252,0.0,0.0,94,0.00,,,0.00,0.0,meteohub,2013-03-14 10:02:00,
2013-03-14 03:07:00,48.0,46.4,30.12,WSW,252,0.0,0.0,94,0.00,,,0.00,0.0,meteohub,2013-03-14 10:07:00,
2013-03-14 03:12:00,48.0,46.4,30.12,WSW,252,0.0,0.0,94,0.00,,,0.00,0.0,meteohub,2013-03-14 10:12:00,
2013-03-14 03:17:00,47.8,46.2,30.12,WSW,252,0.0,0.0,94,0.00,,,0.00,0.0,meteohub,2013-03-14 10:17:00,
2013-03-14 03:22:00,47.8,46.2,30.12,WSW,252,0.0,0.0,94,0.00,,,0.00,0.0,meteohub,2013-03-14 10:22:00,
2013-03-14 03:27:00,47.8,46.2,30.12,WSW,252,0.0,0.0,94,0.00,,,0.00,0.0,meteohub,2013-03-14 10:27:00,
2013-03-14 03:32:00,47.7,46.0,30.12,WSW,252,0.0,0.0,94,0.00,,,0.00,0.0,meteohub,2013-03-14 10:32:00,
2013-03-14 03:37:00,47.7,46.0,30.12,WSW,252,0.0,0.0,94,0.00,,,0.00,0.0,meteohub,2013-03-14 10:37:00,
2013-03-14 03:42:00,47.5,45.9,30.12,WSW,252,0.0,0.0,94,0.00,,,0.00,0.0,meteohub,2013-03-14 10:42:00,
2013-03-14 03:47:00,47.5,45.9,30.12,WSW,252,0.0,0.0,94,0.00,,,0.00,0.0,meteohub,2013-03-14 10:47:00,
2013-03-14 03:52:00,47.5,45.9,30.11,WSW,252,0.0,0.0,94,0.00,,,0.00,0.0,meteohub,2013-03-14 10:52:00,
2013-03-14 03:58:00,47.3,45.7,30.11,WSW,252,0.0,0.0,94,0.00,,,0.00,0.0,meteohub,2013-03-14 10:58:00,
2013-03-14 04:04:00,47.3,45.7,30.11,WSW,252,0.0,0.0,94,0.00,,,0.00,0.0,meteohub,2013-03-14 11:04:00,
2013-03-14 04:10:00,47.1,45.5,30.11,WSW,252,0.0,0.0,94,0.00,,,0.00,0.0,meteohub,2013-03-14 11:10:00,
2013-03-14 04:17:00,47.1,45.5,30.11,WSW,252,0.0,0.0,94,0.00,,,0.00,0.0,meteohub,2013-03-14 11:17:00,
2013-03-14 04:23:00,47.1,45.5,30.11,WSW,252,0.0,0.0,94,0.00,,,0.00,0.0,meteohub,2013-03-14 11:23:00,
2013-03-14 04:29:00,46.9,45.5,30.11,WSW,252,0.0,0.0,95,0.00,,,0.00,0.0,meteohub,2013-03-14 11:29:00,
2013-03-14 04:36:00,46.9,45.5,30.11,WSW,252,0.0,0.0,95,0.00,,,0.00,0.0,meteohub,2013-03-14 11:36:00,
2013-03-14 04:42:00,46.8,45.1,30.11,WSW,252,0.0,0.0,94,0.00,,,0.00,0.0,meteohub,2013-03-14 11:42:00,
2013-03-14 04:48:00,46.6,45.0,30.11,WSW,252,0.0,0.0,94,0.00,,,0.00,0.0,meteohub,2013-03-14 11:48:00,
2013-03-14 04:54:00,46.6,45.1,30.11,WSW,252,0.0,0.0,95,0.00,,,0.00,0.0,meteohub,2013-03-14 11:54:00,
2013-03-14 05:01:00,46.4,45.0,30.11,WSW,252,0.0,0.0,95,0.00,,,0.00,0.0,meteohub,2013-03-14 12:01:00,
2013-03-14 05:07:00,46.2,44.8,30.11,WSW,252,0.0,0.0,95,0.00,,,0.00,0.0,meteohub,2013-03-14 12:07:00,
2013-03-14 05:12:00,46.2,44.8,30.11,WSW,252,0.0,0.0,95,0.00,,,0.00,0.0,meteohub,2013-03-14 12:12:00,
2013-03-14 05:17:00,46.2,44.8,30.11,WSW,252,0.0,0.0,95,0.00,,,0.00,0.0,meteohub,2013-03-14 12:17:00,
2013-03-14 05:22:00,46.0,44.6,30.11,WSW,252,0.0,0.0,95,0.00,,,0.00,0.0,meteohub,2013-03-14 12:22:00,
2013-03-14 05:27:00,46.0,44.6,30.11,WSW,252,0.0,0.0,95,0.00,,,0.00,0.0,meteohub,2013-03-14 12:27:00,
2013-03-14 05:32:00,46.0,44.6,30.11,WSW,252,0.0,0.0,95,0.00,,,0.00,0.0,meteohub,2013-03-14 12:32:00,
2013-03-14 05:37:00,46.0,44.6,30.11,WSW,252,0.0,0.0,95,0.00,,,0.00,0.0,meteohub,2013-03-14 12:37:00,
2013-03-14 05:42:00,45.9,44.4,30.12,WSW,252,0.0,0.0,95,0.00,,,0.00,0.0,meteohub,2013-03-14 12:42:00,
2013-03-14 05:47:00,45.9,44.4,30.12,WSW,252,0.0,0.0,95,0.00,,,0.00,0.0,meteohub,2013-03-14 12:47:00,
2013-03-14 05:52:00,45.7,44.4,30.12,WSW,252,0.0,0.0,95,0.00,,,0.00,0.0,meteohub,2013-03-14 12:52:00,
2013-03-14 05:57:00,45.7,44.4,30.12,WSW,252,0.0,0.0,95,0.00,,,0.00,0.0,meteohub,2013-03-14 12:57:00,
2013-03-14 06:02:00,45.7,44.4,30.12,WSW,252,0.0,0.0,95,0.00,,,0.00,0.0,meteohub,2013-03-14 13:02:00,
2013-03-14 06:07:00,45.7,44.4,30.12,WSW,252,0.0,0.0,95,0.00,,,0.00,0.0,meteohub,2013-03-14 13:07:00,
2013-03-14 06:14:00,45.7,44.4,30.12,WSW,252,0.0,0.0,95,0.00,,,0.00,0.0,meteohub,2013-03-14 13:14:00,
2013-03-14 06:20:00,45.7,44.4,30.12,WSW,252,0.0,0.0,95,0.00,,,0.00,0.0,meteohub,2013-03-14 13:20:00,
2013-03-14 06:26:00,45.7,44.4,30.12,WSW,252,0.0,0.0,95,0.00,,,0.00,0.0,meteohub,2013-03-14 13:26:00,
2013-03-14 06:32:00,45.7,44.4,30.12,WSW,252,0.0,0.0,95,0.00,,,0.00,0.0,meteohub,2013-03-14 13:32:00,
2013-03-14 06:37:00,45.7,44.4,30.12,WSW,252,0.0,0.0,95,0.00,,,0.00,0.0,meteohub,2013-03-14 13:37:00,
2013-03-14 06:42:00,45.7,44.4,30.12,WSW,252,0.0,0.0,95,0.00,,,0.00,0.0,meteohub,2013-03-14 13:42:00,
2013-03-14 06:47:00,45.7,44.4,30.12,WSW,252,0.0,0.0,95,0.00,,,0.00,0.0,meteohub,2013-03-14 13:47:00,
2013-03-14 06:52:00,45.7,44.4,30.12,WSW,252,0.0,0.0,95,0.00,,,0.00,0.0,meteohub,2013-03-14 13:52:00,
2013-03-14 06:57:00,45.7,44.4,30.13,WSW,252,0.0,0.0,95,0.00,,,0.00,0.0,meteohub,2013-03-14 13:57:00,
2013-03-14 07:02:00,45.7,44.4,30.13,WSW,252,0.0,0.0,95,0.00,,,0.00,0.0,meteohub,2013-03-14 14:02:00,
2013-03-14 07:07:00,45.5,44.2,30.13,WSW,252,0.0,0.0,95,0.00,,,0.00,0.0,meteohub,2013-03-14 14:07:00,
2013-03-14 07:12:00,45.7,44.4,30.13,WSW,252,0.0,0.0,95,0.00,,,0.00,0.0,meteohub,2013-03-14 14:12:00,
2013-03-14 07:17:00,45.7,44.4,30.13,WSW,252,0.0,0.0,95,0.00,,,0.00,0.0,meteohub,2013-03-14 14:17:00,
2013-03-14 07:22:00,45.7,44.4,30.13,WSW,252,0.0,0.0,95,0.00,,,0.00,0.0,meteohub,2013-03-14 14:22:00,
2013-03-14 07:28:00,45.7,44.4,30.13,WSW,252,0.0,0.0,95,0.00,,,0.00,0.0,meteohub,2013-03-14 14:28:00,
2013-03-14 07:34:00,45.7,44.4,30.13,WSW,252,0.0,0.0,95,0.00,,,0.00,9.0,meteohub,2013-03-14 14:34:00,
2013-03-14 07:41:00,45.7,44.4,30.13,WSW,252,0.0,0.0,95,0.00,,,0.00,14.0,meteohub,2013-03-14 14:41:00,
2013-03-14 07:47:00,45.7,44.4,30.13,WSW,252,0.0,0.0,95,0.00,,,0.00,19.0,meteohub,2013-03-14 14:47:00,
2013-03-14 07:53:00,45.7,44.6,30.13,WSW,252,0.0,0.0,96,0.00,,,0.00,33.0,meteohub,2013-03-14 14:53:00,
2013-03-14 07:59:00,45.7,44.6,30.14,WSW,252,0.0,0.0,96,0.00,,,0.00,39.0,meteohub,2013-03-14 14:59:00,
2013-03-14 08:05:00,45.7,44.6,30.14,WSW,252,0.0,0.0,96,0.00,,,0.00,42.0,meteohub,2013-03-14 15:05:00,
2013-03-14 08:12:00,45.7,44.6,30.14,WSW,252,0.0,0.0,96,0.00,,,0.00,53.0,meteohub,2013-03-14 15:12:00,
2013-03-14 08:17:00,45.7,44.6,30.14,WSW,252,0.0,0.0,96,0.00,,,0.00,58.0,meteohub,2013-03-14 15:17:00,
2013-03-14 08:22:00,45.9,44.8,30.14,WSW,252,0.0,0.0,96,0.00,,,0.00,51.0,meteohub,2013-03-14 15:22:00,
2013-03-14 08:28:00,46.0,45.0,30.15,WSW,252,0.0,0.0,96,0.01,,,0.01,56.0,meteohub,2013-03-14 15:28:00,
2013-03-14 08:34:00,46.0,45.0,30.15,WSW,252,0.0,0.0,96,0.01,,,0.01,76.0,meteohub,2013-03-14 15:34:00,
2013-03-14 08:40:00,46.2,45.1,30.15,WSW,252,0.0,0.0,96,0.01,,,0.01,97.0,meteohub,2013-03-14 15:40:00,
2013-03-14 08:47:00,46.2,45.1,30.15,WSW,252,0.0,0.0,96,0.01,,,0.01,107.0,meteohub,2013-03-14 15:47:00,
2013-03-14 08:52:00,46.6,45.5,30.16,WSW,252,0.0,0.0,96,0.01,,,0.01,114.0,meteohub,2013-03-14 15:52:00,
2013-03-14 08:57:00,46.8,45.7,30.16,WSW,252,0.0,0.0,96,0.01,,,0.01,123.0,meteohub,2013-03-14 15:57:00,
2013-03-14 09:02:00,46.9,45.9,30.16,WSW,252,0.0,0.0,96,0.01,,,0.01,128.0,meteohub,2013-03-14 16:02:00,
2013-03-14 09:08:00,47.1,46.4,30.17,WSW,252,0.0,0.0,97,0.01,,,0.01,137.0,meteohub,2013-03-14 16:08:00,
2013-03-14 09:14:00,47.3,46.2,30.17,WSW,252,0.0,0.0,96,0.01,,,0.01,149.0,meteohub,2013-03-14 16:14:00,
2013-03-14 09:20:00,47.5,46.4,30.17,WSW,252,0.0,0.0,96,0.01,,,0.01,193.0,meteohub,2013-03-14 16:20:00,
2013-03-14 09:26:00,48.0,47.1,30.17,WSW,252,0.0,0.0,97,0.01,,,0.01,183.0,meteohub,2013-03-14 16:26:00,
2013-03-14 09:32:00,48.4,47.5,30.17,WSW,252,0.0,0.0,97,0.00,,,0.01,192.0,meteohub,2013-03-14 16:32:00,
2013-03-14 09:37:00,48.6,47.5,30.17,WSW,252,0.0,0.0,96,0.00,,,0.01,185.0,meteohub,2013-03-14 16:37:00,
2013-03-14 09:42:00,48.7,47.7,30.17,WSW,252,0.0,0.0,96,0.00,,,0.01,171.0,meteohub,2013-03-14 16:42:00,
2013-03-14 09:47:00,48.9,47.8,30.17,WSW,252,0.0,0.0,96,0.00,,,0.01,155.0,meteohub,2013-03-14 16:47:00,
2013-03-14 09:53:00,49.5,48.0,30.17,WSW,252,0.0,0.0,95,0.00,,,0.01,153.0,meteohub,2013-03-14 16:53:00,
2013-03-14 09:59:00,49.8,48.4,30.17,WSW,252,0.0,0.0,95,0.00,,,0.01,202.0,meteohub,2013-03-14 16:59:00,
2013-03-14 10:05:00,50.5,49.1,30.17,WSW,252,0.0,0.0,95,0.00,,,0.01,264.0,meteohub,2013-03-14 17:05:00,
2013-03-14 10:11:00,51.1,49.5,30.17,WSW,252,0.0,0.0,94,0.00,,,0.01,373.0,meteohub,2013-03-14 17:11:00,
2013-03-14 10:17:00,51.6,49.6,30.17,WSW,252,0.0,0.0,93,0.00,,,0.01,352.0,meteohub,2013-03-14 17:17:00,
2013-03-14 10:22:00,52.2,49.8,30.17,WSW,252,0.0,0.0,92,0.00,,,0.01,352.0,meteohub,2013-03-14 17:22:00,
2013-03-14 10:28:00,52.9,50.4,30.17,WSW,251,0.0,0.0,91,0.00,,,0.01,373.0,meteohub,2013-03-14 17:28:00,
2013-03-14 10:34:00,53.6,50.7,30.18,WSW,242,0.0,0.0,90,0.00,,,0.01,441.0,meteohub,2013-03-14 17:34:00,
2013-03-14 10:41:00,54.3,50.9,30.17,WSW,242,0.0,0.0,88,0.00,,,0.01,406.0,meteohub,2013-03-14 17:41:00,
2013-03-14 10:47:00,55.2,51.1,30.18,WSW,242,0.0,0.0,86,0.00,,,0.01,427.0,meteohub,2013-03-14 17:47:00,
2013-03-14 10:52:00,55.6,51.4,30.17,SSW,193,0.0,0.0,86,0.00,,,0.01,420.0,meteohub,2013-03-14 17:52:00,
2013-03-14 10:57:00,56.1,51.6,30.18,SSW,192,0.0,0.0,85,0.00,,,0.01,587.0,meteohub,2013-03-14 17:57:00,
2013-03-14 11:02:00,57.2,52.7,30.17,SSW,192,0.0,0.0,85,0.00,,,0.01,578.0,meteohub,2013-03-14 18:02:00,
2013-03-14 11:07:00,58.3,53.1,30.18,SSW,192,0.0,0.0,83,0.00,,,0.01,563.0,meteohub,2013-03-14 18:07:00,
2013-03-14 11:12:00,59.0,52.9,30.18,SSW,192,0.0,0.0,80,0.00,,,0.01,448.0,meteohub,2013-03-14 18:12:00,
2013-03-14 11:17:00,59.2,53.1,30.18,South,190,0.0,0.0,80,0.00,,,0.01,422.0,meteohub,2013-03-14 18:17:00,
2013-03-14 11:22:00,59.5,53.1,30.17,South,185,0.0,0.0,79,0.00,,,0.01,388.0,meteohub,2013-03-14 18:22:00,
2013-03-14 11:27:00,59.9,53.1,30.17,South,185,0.0,0.0,78,0.00,,,0.01,513.0,meteohub,2013-03-14 18:27:00,
2013-03-14 11:32:00,60.4,52.9,30.17,SW,215,0.0,0.0,76,0.00,,,0.01,309.0,meteohub,2013-03-14 18:32:00,
2013-03-14 11:37:00,60.8,54.0,30.17,SSW,213,0.0,0.0,78,0.00,,,0.01,311.0,meteohub,2013-03-14 18:37:00,
2013-03-14 11:42:00,61.3,53.4,30.17,SSW,213,0.0,0.0,75,0.00,,,0.01,360.0,meteohub,2013-03-14 18:42:00,
2013-03-14 11:47:00,61.9,53.4,30.17,SSW,213,0.0,0.0,74,0.00,,,0.01,424.0,meteohub,2013-03-14 18:47:00,
2013-03-14 11:52:00,62.1,53.6,30.17,SSW,213,0.0,0.0,74,0.00,,,0.01,585.0,meteohub,2013-03-14 18:52:00,
2013-03-14 11:57:00,62.8,54.3,30.17,SSW,213,0.0,0.0,74,0.00,,,0.01,394.0,meteohub,2013-03-14 18:57:00,
2013-03-14 12:02:00,63.1,53.6,30.17,WSW,240,0.0,0.0,71,0.00,,,0.01,431.0,meteohub,2013-03-14 19:02:00,
2013-03-14 12:08:00,63.7,54.5,30.17,South,187,0.0,0.0,72,0.00,,,0.01,503.0,meteohub,2013-03-14 19:08:00,
2013-03-14 12:15:00,64.6,55.0,30.17,South,186,0.0,0.0,71,0.00,,,0.01,503.0,meteohub,2013-03-14 19:15:00,
2013-03-14 12:21:00,65.1,55.0,30.16,West,276,0.0,0.0,70,0.00,,,0.01,543.0,meteohub,2013-03-14 19:21:00,
2013-03-14 12:27:00,65.8,55.8,30.17,SW,226,0.0,0.0,70,0.00,,,0.01,503.0,meteohub,2013-03-14 19:27:00,
2013-03-14 12:32:00,65.8,55.8,30.17,SW,223,0.0,0.0,70,0.00,,,0.01,376.0,meteohub,2013-03-14 19:32:00,
2013-03-14 12:37:00,66.0,55.6,30.17,SW,223,0.0,0.0,69,0.00,,,0.01,429.0,meteohub,2013-03-14 19:37:00,
2013-03-14 12:44:00,66.4,55.9,30.16,SW,221,0.0,0.0,69,0.00,,,0.01,606.0,meteohub,2013-03-14 19:44:00,
2013-03-14 12:50:00,66.6,56.1,30.17,SSW,213,0.0,0.0,69,0.00,,,0.01,744.0,meteohub,2013-03-14 19:50:00,
2013-03-14 12:56:00,67.5,56.1,30.17,SW,220,0.0,0.0,67,0.00,,,0.01,814.0,meteohub,2013-03-14 19:56:00,
2013-03-14 13:02:00,67.8,55.6,30.17,SW,220,0.0,0.0,65,0.00,,,0.01,830.0,meteohub,2013-03-14 20:02:00,
2013-03-14 13:07:00,68.7,55.6,30.16,South,176,0.0,0.0,63,0.00,,,0.01,773.0,meteohub,2013-03-14 20:07:00,
2013-03-14 13:12:00,69.6,55.6,30.16,SSE,159,0.0,0.0,61,0.00,,,0.01,633.0,meteohub,2013-03-14 20:12:00,
2013-03-14 13:17:00,70.2,55.6,30.15,SSE,160,0.0,0.0,60,0.00,,,0.01,339.0,meteohub,2013-03-14 20:17:00,
2013-03-14 13:22:00,70.3,55.8,30.15,SSE,160,0.0,0.0,60,0.00,,,0.01,429.0,meteohub,2013-03-14 20:22:00,
2013-03-14 13:27:00,70.5,55.9,30.15,SSE,160,0.0,0.0,60,0.00,,,0.01,327.0,meteohub,2013-03-14 20:27:00,
2013-03-14 13:33:00,70.5,55.9,30.14,SSE,158,0.0,0.0,60,0.00,,,0.01,362.0,meteohub,2013-03-14 20:33:00,
2013-03-14 13:39:00,70.7,55.6,30.14,SSE,157,0.0,0.0,59,0.00,,,0.01,429.0,meteohub,2013-03-14 20:39:00,
2013-03-14 13:45:00,70.5,56.8,30.15,SSE,157,0.0,0.0,62,0.00,,,0.01,441.0,meteohub,2013-03-14 20:45:00,
2013-03-14 13:51:00,70.5,55.0,30.14,SSW,209,0.0,0.0,58,0.00,,,0.01,415.0,meteohub,2013-03-14 20:51:00,
2013-03-14 13:57:00,70.9,56.3,30.14,SSW,192,0.0,0.0,60,0.00,,,0.01,584.0,meteohub,2013-03-14 20:57:00,
2013-03-14 14:02:00,71.6,55.6,30.14,SSE,155,0.0,0.0,57,0.00,,,0.01,541.0,meteohub,2013-03-14 21:02:00,
2013-03-14 14:08:00,71.8,54.3,30.14,South,185,0.0,0.0,54,0.00,,,0.01,649.0,meteohub,2013-03-14 21:08:00,
2013-03-14 14:14:00,71.6,54.1,30.14,SW,225,0.0,0.0,54,0.00,,,0.01,603.0,meteohub,2013-03-14 21:14:00,
2013-03-14 14:20:00,72.1,55.0,30.14,SSW,210,0.0,0.0,55,0.00,,,0.01,775.0,meteohub,2013-03-14 21:20:00,
2013-03-14 14:27:00,72.9,53.1,30.13,SW,223,0.0,0.0,50,0.00,,,0.01,399.0,meteohub,2013-03-14 21:27:00,
2013-03-14 14:33:00,72.0,53.4,30.13,SW,227,0.0,0.0,52,0.00,,,0.01,281.0,meteohub,2013-03-14 21:33:00,
2013-03-14 14:39:00,70.9,52.3,30.13,SW,234,0.0,0.0,52,0.00,,,0.01,290.0,meteohub,2013-03-14 21:39:00,
2013-03-14 14:45:00,70.0,50.5,30.12,WSW,241,0.0,0.0,50,0.00,,,0.01,357.0,meteohub,2013-03-14 21:45:00,
2013-03-14 14:52:00,69.4,51.1,30.12,WSW,246,0.0,0.0,52,0.00,,,0.01,380.0,meteohub,2013-03-14 21:52:00,
2013-03-14 14:57:00,69.4,51.1,30.13,WSW,240,0.0,0.0,52,0.00,,,0.01,369.0,meteohub,2013-03-14 21:57:00,
2013-03-14 15:02:00,69.3,49.3,30.14,WSW,258,0.0,0.0,49,0.00,,,0.01,438.0,meteohub,2013-03-14 22:02:00,
2013-03-14 15:08:00,69.4,49.5,30.13,SW,233,0.0,0.0,49,0.00,,,0.01,578.0,meteohub,2013-03-14 22:08:00,
2013-03-14 15:14:00,69.8,49.3,30.12,SW,221,0.0,0.0,48,0.00,,,0.01,635.0,meteohub,2013-03-14 22:14:00,
2013-03-14 15:20:00,70.0,48.7,30.13,SW,229,0.0,0.0,47,0.00,,,0.01,288.0,meteohub,2013-03-14 22:20:00,
2013-03-14 15:27:00,70.0,50.0,30.13,SSW,194,0.0,0.0,49,0.00,,,0.01,606.0,meteohub,2013-03-14 22:27:00,
2013-03-14 15:32:00,69.8,49.3,30.14,SW,236,9.0,0.0,48,0.00,,,0.01,320.0,meteohub,2013-03-14 22:32:00,
2013-03-14 15:37:00,69.4,48.4,30.14,South,182,5.0,11.0,47,0.00,,,0.01,329.0,meteohub,2013-03-14 22:37:00,
2013-03-14 15:43:00,69.4,49.5,30.13,SW,226,4.0,11.0,49,0.00,,,0.01,329.0,meteohub,2013-03-14 22:43:00,
2013-03-14 15:49:00,69.4,50.0,30.13,SW,229,2.0,11.0,50,0.00,,,0.01,369.0,meteohub,2013-03-14 22:49:00,
2013-03-14 15:55:00,69.6,48.6,30.12,SSW,198,0.0,9.0,47,0.00,,,0.01,635.0,meteohub,2013-03-14 22:55:00,
2013-03-14 16:02:00,70.2,50.7,30.12,SW,226,4.0,6.0,50,0.00,,,0.01,339.0,meteohub,2013-03-14 23:02:00,
2013-03-14 16:07:00,69.6,50.7,30.13,WSW,240,4.0,5.0,51,0.00,,,0.01,385.0,meteohub,2013-03-14 23:07:00,
2013-03-14 16:12:00,69.4,50.0,30.13,SW,220,6.0,6.0,50,0.00,,,0.01,320.0,meteohub,2013-03-14 23:12:00,
2013-03-14 16:18:00,69.4,50.0,30.13,SW,234,8.0,9.0,50,0.00,,,0.01,325.0,meteohub,2013-03-14 23:18:00,
2013-03-14 16:25:00,69.4,49.5,30.13,WSW,246,9.0,9.0,49,0.00,,,0.01,188.0,meteohub,2013-03-14 23:25:00,
2013-03-14 16:31:00,68.9,50.0,30.13,SW,236,1.0,9.0,51,0.00,,,0.01,185.0,meteohub,2013-03-14 23:31:00,
2013-03-14 16:37:00,68.5,51.8,30.13,SSW,201,2.0,9.0,55,0.00,,,0.01,193.0,meteohub,2013-03-14 23:37:00,
2013-03-14 16:42:00,68.5,49.6,30.13,SW,229,6.0,9.0,51,0.00,,,0.01,172.0,meteohub,2013-03-14 23:42:00,
2013-03-14 16:48:00,68.2,51.4,30.13,WSW,242,2.0,9.0,55,0.00,,,0.01,158.0,meteohub,2013-03-14 23:48:00,
2013-03-14 16:54:00,67.6,53.8,30.12,WSW,243,0.0,8.0,61,0.00,,,0.01,153.0,meteohub,2013-03-14 23:54:00,
2013-03-14 17:00:00,67.5,52.7,30.13,WSW,248,0.0,6.0,59,0.00,,,0.01,139.0,meteohub,2013-03-15 00:00:00,
2013-03-14 17:06:00,67.1,54.1,30.13,WSW,248,0.0,5.0,63,0.00,,,0.01,148.0,meteohub,2013-03-15 00:06:00,
2013-03-14 17:12:00,66.7,54.1,30.12,WSW,248,0.0,5.0,64,0.00,,,0.00,139.0,meteohub,2013-03-15 00:12:00,
2013-03-14 17:17:00,66.6,54.9,30.12,WSW,248,0.0,2.0,66,0.00,,,0.00,123.0,meteohub,2013-03-15 00:17:00,
2013-03-14 17:23:00,66.6,53.6,30.12,WSW,248,0.0,1.0,63,0.00,,,0.00,125.0,meteohub,2013-03-15 00:23:00,
2013-03-14 17:29:00,66.4,54.3,30.11,WSW,248,0.0,1.0,65,0.00,,,0.00,130.0,meteohub,2013-03-15 00:29:00,
2013-03-14 17:35:00,66.0,53.1,30.11,WSW,248,0.0,1.0,63,0.00,,,0.00,121.0,meteohub,2013-03-15 00:35:00,
2013-03-14 17:42:00,65.7,52.3,30.11,WSW,248,0.0,2.0,62,0.00,,,0.00,114.0,meteohub,2013-03-15 00:42:00,
2013-03-14 17:47:00,65.5,52.5,30.11,WSW,247,0.0,2.0,63,0.00,,,0.00,123.0,meteohub,2013-03-15 00:47:00,
2013-03-14 17:52:00,65.1,51.8,30.11,SW,221,1.0,2.0,62,0.00,,,0.00,116.0,meteohub,2013-03-15 00:52:00,
2013-03-14 17:58:00,65.1,52.2,30.10,SW,221,0.0,5.0,63,0.00,,,0.00,91.0,meteohub,2013-03-15 00:58:00,
2013-03-14 18:05:00,64.8,52.3,30.09,SW,221,1.0,5.0,64,0.00,,,0.00,77.0,meteohub,2013-03-15 01:05:00,
2013-03-14 18:11:00,64.2,51.8,30.10,SW,222,1.0,5.0,64,0.00,,,0.00,72.0,meteohub,2013-03-15 01:11:00,
2013-03-14 18:17:00,63.7,52.2,30.11,SW,222,0.0,4.0,66,0.00,,,0.00,65.0,meteohub,2013-03-15 01:17:00,
2013-03-14 18:22:00,63.7,52.5,30.11,SW,222,0.0,4.0,67,0.00,,,0.00,69.0,meteohub,2013-03-15 01:22:00,
2013-03-14 18:27:00,63.3,52.2,30.11,SW,222,1.0,4.0,67,0.00,,,0.00,62.0,meteohub,2013-03-15 01:27:00,
2013-03-14 18:32:00,63.1,51.6,30.11,SW,224,0.0,2.0,66,0.00,,,0.00,54.0,meteohub,2013-03-15 01:32:00,
2013-03-14 18:37:00,63.0,51.4,30.11,SW,229,2.0,6.0,66,0.00,,,0.00,49.0,meteohub,2013-03-15 01:37:00,
2013-03-14 18:42:00,62.6,51.1,30.11,SW,232,2.0,6.0,66,0.00,,,0.00,42.0,meteohub,2013-03-15 01:42:00,
2013-03-14 18:48:00,61.9,51.3,30.12,SW,231,0.0,6.0,68,0.00,,,0.00,33.0,meteohub,2013-03-15 01:48:00,
2013-03-14 18:54:00,61.5,52.0,30.11,SW,231,0.0,6.0,71,0.00,,,0.00,32.0,meteohub,2013-03-15 01:54:00,
2013-03-14 19:01:00,61.0,51.4,30.11,SW,232,1.0,6.0,71,0.00,,,0.00,25.0,meteohub,2013-03-15 02:01:00,
2013-03-14 19:07:00,60.8,52.5,30.11,SW,232,0.0,4.0,74,0.00,,,0.00,19.0,meteohub,2013-03-15 02:07:00,
2013-03-14 19:12:00,60.3,51.6,30.11,SW,232,2.0,4.0,73,0.00,,,0.00,16.0,meteohub,2013-03-15 02:12:00,
2013-03-14 19:17:00,60.1,51.8,30.11,SW,232,0.0,2.0,74,0.00,,,0.00,14.0,meteohub,2013-03-15 02:17:00,
2013-03-14 19:24:00,59.4,51.1,30.11,SW,232,1.0,3.0,74,0.00,,,0.00,0.0,meteohub,2013-03-15 02:24:00,
2013-03-14 19:30:00,59.2,51.3,30.11,SW,232,0.0,3.0,75,0.00,,,0.00,0.0,meteohub,2013-03-15 02:30:00,
2013-03-14 19:36:00,58.5,50.9,30.12,SW,232,2.0,3.0,76,0.00,,,0.00,0.0,meteohub,2013-03-15 02:36:00,
2013-03-14 19:42:00,57.9,50.0,30.12,SW,232,0.0,3.0,75,0.00,,,0.00,0.0,meteohub,2013-03-15 02:42:00,
2013-03-14 19:48:00,57.6,50.0,30.11,SW,232,0.0,2.0,76,0.00,,,0.00,0.0,meteohub,2013-03-15 02:48:00,
2013-03-14 19:55:00,57.4,50.2,30.11,SW,232,0.0,2.0,77,0.00,,,0.00,0.0,meteohub,2013-03-15 02:55:00,
2013-03-14 20:01:00,56.7,49.5,30.11,SW,232,1.0,1.0,77,0.00,,,0.00,0.0,meteohub,2013-03-15 03:01:00,
2013-03-14 20:07:00,56.1,48.9,30.11,SW,232,0.0,2.0,77,0.00,,,0.00,0.0,meteohub,2013-03-15 03:07:00,
2013-03-14 20:12:00,55.9,49.5,30.11,SW,232,2.0,2.0,79,0.00,,,0.00,0.0,meteohub,2013-03-15 03:12:00,
2013-03-14 20:18:00,55.6,49.5,30.12,SW,232,0.0,2.0,80,0.00,,,0.00,0.0,meteohub,2013-03-15 03:18:00,
2013-03-14 20:24:00,54.9,48.7,30.12,SW,232,0.0,2.0,80,0.00,,,0.00,0.0,meteohub,2013-03-15 03:24:00,
2013-03-14 20:30:00,54.7,48.6,30.12,SW,232,1.0,2.0,80,0.00,,,0.00,0.0,meteohub,2013-03-15 03:30:00,
2013-03-14 20:36:00,54.3,48.9,30.12,SW,232,0.0,4.0,82,0.00,,,0.00,0.0,meteohub,2013-03-15 03:36:00,
2013-03-14 20:42:00,54.0,48.6,30.12,SW,232,1.0,4.0,82,0.00,,,0.00,0.0,meteohub,2013-03-15 03:42:00,
2013-03-14 20:47:00,53.8,48.4,30.13,SW,232,0.0,4.0,82,0.00,,,0.00,0.0,meteohub,2013-03-15 03:47:00,
2013-03-14 20:52:00,53.6,48.2,30.13,SW,232,0.0,4.0,82,0.00,,,0.00,0.0,meteohub,2013-03-15 03:52:00,
2013-03-14 20:57:00,53.4,48.4,30.13,SW,232,0.0,1.0,83,0.00,,,0.00,0.0,meteohub,2013-03-15 03:57:00,
2013-03-14 21:01:00,53.2,48.2,30.13,SW,232,0.0,1.0,83,0.00,,,0.00,0.0,meteohub,2013-03-15 04:01:00,
2013-03-14 21:03:00,53.2,48.2,30.13,SW,232,0.0,0.0,83,0.00,,,0.00,0.0,meteohub,2013-03-15 04:03:00,
2013-03-14 21:07:00,53.1,48.4,30.13,SW,232,0.0,0.0,84,0.00,,,0.00,0.0,meteohub,2013-03-15 04:07:00,
2013-03-14 21:11:00,52.5,47.8,30.13,SW,232,0.0,0.0,84,0.00,,,0.00,0.0,meteohub,2013-03-15 04:11:00,
2013-03-14 21:17:00,52.3,47.7,30.13,SW,232,0.0,1.0,84,0.00,,,0.00,0.0,meteohub,2013-03-15 04:17:00,
2013-03-14 21:22:00,52.0,47.7,30.13,SW,232,1.0,1.0,85,0.00,,,0.00,0.0,meteohub,2013-03-15 04:22:00,
2013-03-14 21:28:00,51.8,47.7,30.13,SW,232,0.0,1.0,86,0.00,,,0.00,0.0,meteohub,2013-03-15 04:28:00,
2013-03-14 21:34:00,51.6,47.5,30.13,SW,232,0.0,1.0,86,0.00,,,0.00,0.0,meteohub,2013-03-15 04:34:00,
2013-03-14 21:40:00,51.4,47.5,30.13,SW,232,0.0,1.0,86,0.00,,,0.00,0.0,meteohub,2013-03-15 04:40:00,
2013-03-14 21:46:00,51.3,47.5,30.14,SW,232,0.0,1.0,87,0.00,,,0.00,0.0,meteohub,2013-03-15 04:46:00,
2013-03-14 21:52:00,50.7,46.9,30.13,SW,232,0.0,1.0,87,0.00,,,0.00,0.0,meteohub,2013-03-15 04:52:00,
2013-03-14 21:57:00,50.5,46.8,30.14,SW,232,1.0,1.0,87,0.00,,,0.00,0.0,meteohub,2013-03-15 04:57:00,
2013-03-14 22:03:00,50.4,46.9,30.13,SW,232,0.0,2.0,88,0.00,,,0.00,0.0,meteohub,2013-03-15 05:03:00,
2013-03-14 22:09:00,50.2,46.8,30.13,SW,232,0.0,2.0,88,0.00,,,0.00,0.0,meteohub,2013-03-15 05:09:00,
2013-03-14 22:15:00,50.0,46.6,30.14,SW,232,0.0,2.0,88,0.00,,,0.00,0.0,meteohub,2013-03-15 05:15:00,
2013-03-14 22:22:00,49.8,46.8,30.14,SW,232,0.0,1.0,89,0.00,,,0.00,0.0,meteohub,2013-03-15 05:22:00,
2013-03-14 22:27:00,49.8,46.4,30.14,SW,232,0.0,1.0,88,0.00,,,0.00,0.0,meteohub,2013-03-15 05:27:00,
2013-03-14 22:32:00,49.6,46.2,30.14,SW,232,0.0,1.0,88,0.00,,,0.00,0.0,meteohub,2013-03-15 05:32:00,
2013-03-14 22:37:00,49.5,46.4,30.14,SW,232,0.0,0.0,89,0.00,,,0.00,0.0,meteohub,2013-03-15 05:37:00,
2013-03-14 22:42:00,49.3,46.2,30.14,SW,232,0.0,0.0,89,0.00,,,0.00,0.0,meteohub,2013-03-15 05:42:00,
2013-03-14 22:47:00,49.1,46.2,30.14,SW,232,0.0,0.0,90,0.00,,,0.00,0.0,meteohub,2013-03-15 05:47:00,
2013-03-14 22:52:00,48.9,46.0,30.14,SW,232,0.0,0.0,90,0.00,,,0.00,0.0,meteohub,2013-03-15 05:52:00,
2013-03-14 22:57:00,48.7,45.9,30.14,SW,232,0.0,0.0,90,0.00,,,0.00,0.0,meteohub,2013-03-15 05:57:00,
2013-03-14 23:02:00,48.6,45.7,30.14,SW,232,0.0,0.0,90,0.00,,,0.00,0.0,meteohub,2013-03-15 06:02:00,
2013-03-14 23:07:00,48.4,45.5,30.15,SW,232,0.0,0.0,90,0.00,,,0.00,0.0,meteohub,2013-03-15 06:07:00,
2013-03-14 23:13:00,48.4,45.9,30.15,SW,232,0.0,0.0,91,0.00,,,0.00,0.0,meteohub,2013-03-15 06:13:00,
2013-03-14 23:19:00,48.2,45.7,30.15,SW,232,0.0,0.0,91,0.00,,,0.00,0.0,meteohub,2013-03-15 06:19:00,
2013-03-14 23:26:00,47.8,45.3,30.15,SW,232,0.0,0.0,91,0.00,,,0.00,0.0,meteohub,2013-03-15 06:26:00,
2013-03-14 23:32:00,47.8,45.3,30.14,SW,232,0.0,0.0,91,0.00,,,0.00,0.0,meteohub,2013-03-15 06:32:00,
2013-03-14 23:37:00,47.7,45.5,30.14,SW,232,0.0,0.0,92,0.00,,,0.00,0.0,meteohub,2013-03-15 06:37:00,
2013-03-14 23:42:00,47.5,45.3,30.14,SW,232,0.0,0.0,92,0.00,,,0.00,0.0,meteohub,2013-03-15 06:42:00,
2013-03-14 23:47:00,47.5,45.3,30.14,SW,232,0.0,0.0,92,0.00,,,0.00,0.0,meteohub,2013-03-15 06:47:00,
2013-03-14 23:52:00,47.1,45.0,30.14,SW,232,0.0,0.0,92,0.00,,,0.00,0.0,meteohub,2013-03-15 06:52:00,
2013-03-14 23:57:00,47.1,45.0,30.14,SW,232,0.0,1.0,92,0.00,,,0.00,0.0,meteohub,2013-03-15 06:57:00,